Time;durP1;ratioP1;P1;durP2;ratioP2;P2;SDS_P1;SDS_P2;PMS_P1;PMS_P2;Temp;Humidity;BMP_temperature;BMP_pressure;BME280_temperature;BME280_humidity;BME280_pressure;Samples;Min_cycle;Max_cycle;Signal;HPM_P1;HPM_P2
2022/03/07 00:01:13;;;;;;;8.93;5.75;;;;;;;4.33;45.79;100954.31;5111545;28;20065;-60
2022/03/07 00:03:40;;;;;;;8.55;5.13;;;;;;;4.28;46.04;100948.31;5111410;28;20484;-61
2022/03/07 00:06:07;;;;;;;10.00;5.40;;;;;;;4.25;46.19;100946.59;5112921;28;20043;-60
2022/03/07 00:08:33;;;;;;;9.60;5.75;;;;;;;4.22;46.24;100941.41;5112770;28;20051;-62
2022/03/07 00:11:05;;;;;;;10.57;6.13;;;;;;;4.21;46.48;100936.22;5112503;28;20051;-61
2022/03/07 00:13:31;;;;;;;11.38;5.13;;;;;;;4.18;46.32;100937.13;5112474;28;20052;-62
2022/03/07 00:16:00;;;;;;;8.45;4.97;;;;;;;4.16;46.47;100934.53;5112433;28;20104;-61
2022/03/07 00:18:26;;;;;;;7.78;5.47;;;;;;;4.15;46.56;100934.56;5112174;28;20660;-61
2022/03/07 00:20:55;;;;;;;9.13;5.45;;;;;;;4.15;46.48;100938.03;5110678;28;20048;-61
2022/03/07 00:23:22;;;;;;;11.27;5.90;;;;;;;4.15;46.84;100938.03;5111325;28;20051;-61
2022/03/07 00:25:49;;;;;;;8.57;5.43;;;;;;;4.14;46.70;100936.31;5112071;28;20561;-61
2022/03/07 00:28:16;;;;;;;8.57;5.35;;;;;;;4.14;46.53;100935.44;5112268;28;20541;-60
2022/03/07 00:30:43;;;;;;;9.73;5.82;;;;;;;4.15;46.85;100934.56;5112457;28;20047;-60
2022/03/07 00:33:10;;;;;;;10.95;5.18;;;;;;;4.14;46.82;100927.63;5111908;28;20126;-61
2022/03/07 00:35:37;;;;;;;10.07;5.50;;;;;;;4.14;46.36;100930.22;5111124;28;20056;-60
2022/03/07 00:38:05;;;;;;;9.10;5.43;;;;;;;4.13;46.88;100929.38;5112206;28;20271;-61
2022/03/07 00:40:32;;;;;;;9.32;5.95;;;;;;;4.13;46.94;100934.59;5111918;28;20043;-61
2022/03/07 00:42:58;;;;;;;8.93;5.72;;;;;;;4.12;47.15;100929.38;5111898;28;20043;-62
2022/03/07 00:45:25;;;;;;;8.45;5.55;;;;;;;4.11;47.01;100931.13;5112270;28;20087;-61
2022/03/07 00:47:52;;;;;;;8.15;5.93;;;;;;;4.11;46.74;100927.66;5112037;28;20040;-61
2022/03/07 00:50:18;;;;;;;8.93;5.80;;;;;;;4.10;46.96;100934.59;5111425;28;20043;-61
2022/03/07 00:52:44;;;;;;;9.15;5.55;;;;;;;4.08;47.01;100925.97;5111853;28;20052;-60
2022/03/07 00:55:11;;;;;;;8.80;5.80;;;;;;;4.08;47.33;100940.72;5111745;28;20052;-61
2022/03/07 00:57:37;;;;;;;10.57;6.30;;;;;;;4.06;47.08;100938.13;5111547;28;20087;-60
2022/03/07 01:00:05;;;;;;;8.70;5.43;;;;;;;4.04;47.22;100935.53;5111721;28;20480;-62
2022/03/07 01:02:31;;;;;;;11.88;6.43;;;;;;;4.02;46.92;100942.53;5111190;28;20043;-60
2022/03/07 01:05:00;;;;;;;10.25;5.57;;;;;;;4.01;47.04;100940.75;5111816;28;20081;-63
2022/03/07 01:07:27;;;;;;;9.60;5.40;;;;;;;4.00;47.18;100943.41;5111456;28;20055;-60
2022/03/07 01:09:54;;;;;;;8.50;5.47;;;;;;;3.99;47.36;100945.16;5111306;28;20727;-63
2022/03/07 01:12:20;;;;;;;8.85;5.28;;;;;;;3.99;47.35;100946.88;5111684;28;20417;-61
2022/03/07 01:14:47;;;;;;;10.07;5.43;;;;;;;3.98;47.75;100942.56;5111142;28;20056;-62
2022/03/07 01:17:16;;;;;;;8.65;5.43;;;;;;;3.98;47.40;100948.63;5111366;28;20135;-61
2022/03/07 01:19:43;;;;;;;8.27;5.25;;;;;;;3.98;47.50;100947.75;5111377;28;20051;-62
2022/03/07 01:22:09;;;;;;;9.18;5.60;;;;;;;3.99;47.56;100960.78;5111309;28;20100;-60
2022/03/07 01:24:37;;;;;;;9.32;5.70;;;;;;;4.01;47.83;100959.00;5111020;28;20113;-60
2022/03/07 01:27:04;;;;;;;10.25;6.15;;;;;;;4.03;47.98;100951.19;5111611;28;20052;-61
2022/03/07 01:29:30;;;;;;;8.70;5.78;;;;;;;4.07;48.03;100949.44;5110538;28;20453;-60
2022/03/07 01:31:57;;;;;;;8.75;5.63;;;;;;;4.11;48.02;100953.72;5111238;28;20055;-64
2022/03/07 01:34:24;;;;;;;8.93;5.75;;;;;;;4.14;48.01;100951.94;5111127;28;20051;-61
2022/03/07 01:36:50;;;;;;;8.80;5.22;;;;;;;4.19;48.09;100951.03;5111082;28;20079;-61
2022/03/07 01:39:17;;;;;;;10.55;6.15;;;;;;;4.21;48.22;100955.34;5110803;28;20051;-60
2022/03/07 01:41:43;;;;;;;12.07;5.82;;;;;;;4.24;48.03;100944.88;5111303;28;20109;-62
2022/03/07 01:44:21;;;;;;;7.22;5.60;;;;;;;4.25;49.65;100948.34;5110787;28;20040;-60
2022/03/07 01:46:48;;;;;;;8.55;4.90;;;;;;;4.30;48.34;100952.63;5110893;28;20055;-61
2022/03/07 01:49:15;;;;;;;7.95;5.30;;;;;;;4.33;48.51;100946.50;5110723;28;20478;-60
2022/03/07 01:51:43;;;;;;;7.18;5.40;;;;;;;4.38;48.80;100949.06;5110723;28;20047;-61
2022/03/07 01:54:12;;;;;;;8.52;5.25;;;;;;;4.40;48.84;100949.91;5110992;28;20051;-62
2022/03/07 01:56:38;;;;;;;8.25;5.28;;;;;;;4.46;48.53;100941.16;5110893;28;20140;-61
2022/03/07 01:59:05;;;;;;;6.45;5.50;;;;;;;4.51;48.64;100941.94;5110712;28;20044;-63
2022/03/07 02:01:32;;;;;;;8.02;5.38;;;;;;;4.56;48.41;100938.41;5110653;28;20365;-61
2022/03/07 02:03:58;;;;;;;6.88;4.72;;;;;;;4.62;48.60;100947.91;5111305;28;20043;-60
2022/03/07 02:06:25;;;;;;;8.55;4.95;;;;;;;4.67;48.60;100948.69;5110507;28;20109;-61
2022/03/07 02:08:54;;;;;;;6.93;5.00;;;;;;;4.73;48.80;100936.44;5109537;28;20080;-62
2022/03/07 02:11:21;;;;;;;8.15;5.00;;;;;;;4.80;48.32;100941.59;5110560;28;20453;-61
2022/03/07 02:13:47;;;;;;;7.57;4.95;;;;;;;4.87;48.40;100936.28;5111191;28;20416;-61
2022/03/07 02:16:14;;;;;;;7.50;4.88;;;;;;;4.90;48.34;100931.03;5114497;28;20043;-61
2022/03/07 02:18:42;;;;;;;8.32;5.28;;;;;;;4.95;48.41;100929.19;5114661;28;20056;-61
2022/03/07 02:21:14;;;;;;;9.63;5.53;;;;;;;4.98;48.62;100931.78;5114762;28;20101;-62
2022/03/07 02:23:41;;;;;;;6.47;5.18;;;;;;;5.03;48.28;100926.47;5115090;28;20108;-61
2022/03/07 02:26:16;;;;;;;6.60;5.05;;;;;;;5.05;49.00;100928.16;5115129;28;20548;-61
2022/03/07 02:28:45;;;;;;;6.68;5.20;;;;;;;5.09;48.52;100926.41;5113751;28;20126;-61
2022/03/07 02:31:16;;;;;;;7.40;5.05;;;;;;;5.10;48.84;100933.31;5113168;28;20055;-61
2022/03/07 02:33:43;;;;;;;9.75;5.68;;;;;;;5.13;48.29;100932.41;5114630;28;20077;-61
2022/03/07 02:36:09;;;;;;;8.43;5.38;;;;;;;5.16;48.32;100927.16;5114546;28;20051;-61
2022/03/07 02:38:36;;;;;;;7.72;4.93;;;;;;;5.17;48.31;100928.88;5114470;28;20077;-61
2022/03/07 02:41:02;;;;;;;9.70;5.20;;;;;;;5.20;48.16;100926.22;5114201;28;20051;-61
2022/03/07 02:43:29;;;;;;;9.10;4.90;;;;;;;5.23;48.10;100923.53;5114318;28;20039;-61
2022/03/07 02:45:58;;;;;;;7.38;5.25;;;;;;;5.26;48.00;100922.63;5114278;28;20040;-61
2022/03/07 02:48:25;;;;;;;8.77;5.47;;;;;;;5.28;48.28;100916.53;5114133;28;20048;-62
2022/03/07 02:50:52;;;;;;;7.95;4.93;;;;;;;5.29;47.97;100910.41;5112543;28;20051;-61
2022/03/07 02:53:18;;;;;;;7.55;5.45;;;;;;;5.32;48.16;100922.56;5114169;28;20461;-61
2022/03/07 02:55:45;;;;;;;8.55;5.30;;;;;;;5.33;48.29;100919.03;5114150;28;20403;-61
2022/03/07 02:58:11;;;;;;;10.55;5.47;;;;;;;5.35;48.36;100920.75;5114028;28;20089;-61
2022/03/07 03:00:38;;;;;;;6.97;4.85;;;;;;;5.35;48.00;100925.97;5113819;28;20059;-61
2022/03/07 03:03:05;;;;;;;7.70;5.03;;;;;;;5.38;48.17;100926.81;5112944;28;20442;-63
2022/03/07 03:05:31;;;;;;;7.25;5.07;;;;;;;5.37;48.07;100920.72;5113608;28;20069;-60
2022/03/07 03:07:58;;;;;;;7.78;5.00;;;;;;;5.38;47.99;100922.44;5114079;28;20087;-61
2022/03/07 03:10:24;;;;;;;7.00;5.13;;;;;;;5.39;47.85;100918.09;5113760;28;20116;-61
2022/03/07 03:12:51;;;;;;;8.45;5.50;;;;;;;5.39;47.96;100916.34;5113899;28;20556;-63
2022/03/07 03:15:18;;;;;;;7.60;5.38;;;;;;;5.40;47.92;100923.28;5113762;28;20457;-61
2022/03/07 03:17:45;;;;;;;9.10;5.82;;;;;;;5.43;47.92;100925.84;5113910;28;20052;-61
2022/03/07 03:20:14;;;;;;;8.18;5.15;;;;;;;5.45;48.09;100928.41;5112569;28;20052;-61
2022/03/07 03:22:44;;;;;;;7.32;5.85;;;;;;;5.45;48.09;100931.91;5112513;28;20108;-61
2022/03/07 03:25:15;;;;;;;8.93;5.80;;;;;;;5.45;47.97;100929.28;5111929;28;20051;-61
2022/03/07 03:27:42;;;;;;;7.00;5.38;;;;;;;5.46;47.73;100927.56;5113446;28;20278;-60
2022/03/07 03:30:11;;;;;;;10.05;5.75;;;;;;;5.45;48.30;100928.41;5113134;28;20487;-61
2022/03/07 03:32:38;;;;;;;7.28;5.90;;;;;;;5.46;47.80;100927.56;5113785;28;20047;-62
2022/03/07 03:35:05;;;;;;;6.80;5.45;;;;;;;5.43;47.88;100920.63;5113509;28;20097;-61
2022/03/07 03:37:31;;;;;;;10.18;5.85;;;;;;;5.43;47.93;100922.38;5113837;27;20083;-61
2022/03/07 03:39:58;;;;;;;8.18;5.70;;;;;;;5.43;47.91;100919.75;5112976;28;20086;-61
2022/03/07 03:42:25;;;;;;;8.35;5.95;;;;;;;5.41;47.81;100913.69;5113435;28;20091;-61
2022/03/07 03:44:51;;;;;;;9.40;5.85;;;;;;;5.41;47.96;100908.47;5113379;28;20124;-61
2022/03/07 03:47:18;;;;;;;8.70;6.00;;;;;;;5.40;47.69;100901.53;5113261;28;20055;-61
2022/03/07 03:49:44;;;;;;;9.52;5.95;;;;;;;5.38;48.06;100904.16;5112948;28;20055;-61
2022/03/07 03:52:11;;;;;;;10.68;5.43;;;;;;;5.40;48.17;100906.75;5113005;28;20104;-61
2022/03/07 03:54:38;;;;;;;7.35;5.63;;;;;;;5.40;48.09;100909.34;5112954;28;20048;-61
2022/03/07 03:57:05;;;;;;;10.02;6.03;;;;;;;5.40;48.17;100909.34;5113236;28;20091;-62
2022/03/07 03:59:34;;;;;;;7.38;5.50;;;;;;;5.41;48.00;100901.50;5112916;28;20134;-62
2022/03/07 04:02:04;;;;;;;7.10;5.43;;;;;;;5.41;47.64;100893.66;5112549;28;20086;-61
2022/03/07 04:04:31;;;;;;;8.30;6.03;;;;;;;5.41;47.91;100898.91;5111650;28;20052;-61
2022/03/07 04:06:58;;;;;;;11.30;6.30;;;;;;;5.41;48.37;100900.63;5112657;28;20492;-61
2022/03/07 04:09:28;;;;;;;7.07;5.80;;;;;;;5.41;48.02;100898.03;5112524;28;20126;-62
2022/03/07 04:11:55;;;;;;;8.05;5.93;;;;;;;5.39;47.91;100898.06;5112918;28;20408;-61
2022/03/07 04:14:23;;;;;;;11.10;6.55;;;;;;;5.34;47.84;100890.31;5112969;28;20416;-60
2022/03/07 04:16:53;;;;;;;9.50;6.00;;;;;;;5.27;47.83;100888.66;5111814;28;20100;-61
2022/03/07 04:19:20;;;;;;;7.82;5.93;;;;;;;5.19;47.75;100899.25;5112033;28;20054;-61
2022/03/07 04:21:47;;;;;;;9.15;6.05;;;;;;;5.13;47.79;100901.09;5112418;28;20211;-61
2022/03/07 04:24:13;;;;;;;9.25;5.97;;;;;;;5.06;48.09;100898.59;5112705;28;20116;-61
2022/03/07 04:26:41;;;;;;;10.48;7.03;;;;;;;5.02;48.26;100891.69;5112543;28;20055;-61
2022/03/07 04:29:08;;;;;;;11.63;6.70;;;;;;;4.99;48.34;100891.75;5112327;28;20051;-60
2022/03/07 04:31:36;;;;;;;8.43;6.32;;;;;;;4.98;48.41;100897.84;5112356;28;20055;-61
2022/03/07 04:34:03;;;;;;;9.45;6.22;;;;;;;4.95;48.46;100903.09;5110681;28;20569;-62
2022/03/07 04:36:30;;;;;;;9.43;6.03;;;;;;;4.94;48.65;100898.78;5109737;28;20048;-61
2022/03/07 04:38:57;;;;;;;9.88;6.35;;;;;;;4.93;48.71;100902.25;5112332;28;20079;-60
2022/03/07 04:41:24;;;;;;;9.15;6.53;;;;;;;4.93;48.62;100905.72;5111967;28;20077;-61
2022/03/07 04:43:50;;;;;;;7.88;5.47;;;;;;;4.94;48.90;100906.59;5105312;28;20449;-62
2022/03/07 04:46:17;;;;;;;8.32;6.50;;;;;;;4.95;48.78;100898.75;5110881;28;20100;-62
2022/03/07 04:48:43;;;;;;;11.65;6.47;;;;;;;4.97;48.90;100905.69;5110343;28;20469;-62
2022/03/07 04:51:10;;;;;;;9.98;6.45;;;;;;;4.98;49.06;100912.63;5111029;28;20051;-61
2022/03/07 04:53:37;;;;;;;8.65;5.47;;;;;;;5.00;49.28;100914.34;5111560;28;20377;-60
2022/03/07 04:56:04;;;;;;;7.93;5.57;;;;;;;5.03;49.04;100918.63;5112100;28;20116;-63
2022/03/07 04:58:31;;;;;;;7.97;5.65;;;;;;;5.05;49.06;100929.94;5111945;28;20044;-60
2022/03/07 05:00:57;;;;;;;11.18;5.90;;;;;;;5.06;48.83;100929.03;5111418;28;20056;-60
2022/03/07 05:03:24;;;;;;;8.93;6.13;;;;;;;5.06;48.85;100932.53;5111700;28;20551;-62
2022/03/07 05:05:51;;;;;;;10.70;6.28;;;;;;;5.05;48.76;100936.00;5111663;28;20055;-60
2022/03/07 05:08:18;;;;;;;10.23;6.47;;;;;;;5.05;48.70;100929.94;5110516;28;20108;-60
2022/03/07 05:10:44;;;;;;;8.85;6.63;;;;;;;5.04;49.06;100936.88;5111463;28;20529;-62
2022/03/07 05:13:11;;;;;;;10.77;6.57;;;;;;;5.03;49.20;100943.00;5111599;28;20132;-61
2022/03/07 05:15:38;;;;;;;12.30;6.97;;;;;;;5.01;48.69;100934.31;5109973;28;20044;-61
2022/03/07 05:18:05;;;;;;;8.52;6.63;;;;;;;4.99;49.22;100930.88;5111070;28;20056;-60
2022/03/07 05:20:31;;;;;;;9.60;7.68;;;;;;;4.99;49.36;100945.66;5110800;28;20055;-62
2022/03/07 05:23:18;;;;;;;10.55;6.50;;;;;;;4.99;49.25;100937.84;5111383;28;20126;-61
2022/03/07 05:25:45;;;;;;;12.15;6.93;;;;;;;5.00;49.43;100943.03;5111127;28;20039;-61
2022/03/07 05:28:11;;;;;;;11.32;7.53;;;;;;;4.99;49.41;100940.44;5109782;28;20109;-62
2022/03/07 05:30:38;;;;;;;8.57;6.55;;;;;;;5.00;49.23;100937.81;5110724;28;20079;-60
2022/03/07 05:33:04;;;;;;;9.63;6.75;;;;;;;5.02;49.47;100943.00;5111394;28;20048;-61
2022/03/07 05:35:31;;;;;;;8.73;6.35;;;;;;;5.02;49.35;100946.50;5110569;28;20415;-62
2022/03/07 05:37:57;;;;;;;10.65;6.72;;;;;;;5.04;49.52;100943.84;5109988;28;20047;-61
2022/03/07 05:40:24;;;;;;;8.45;6.35;;;;;;;5.03;49.22;100943.00;5110273;28;20043;-61
2022/03/07 05:42:50;;;;;;;11.10;7.55;;;;;;;5.04;49.48;100939.50;5110662;28;20051;-60
2022/03/07 05:45:17;;;;;;;9.40;6.78;;;;;;;5.05;49.61;100943.81;5109810;28;20349;-61
2022/03/07 05:47:44;;;;;;;9.02;6.57;;;;;;;5.06;49.82;100948.19;5110606;28;20488;-60
2022/03/07 05:50:11;;;;;;;10.25;7.15;;;;;;;5.08;49.66;100940.31;5110460;28;20484;-60
2022/03/07 05:52:38;;;;;;;10.20;6.55;;;;;;;5.08;49.61;100946.41;5110918;28;20400;-62
2022/03/07 05:55:06;;;;;;;12.63;7.63;;;;;;;5.10;49.95;100946.38;5110471;28;20553;-61
2022/03/07 05:57:33;;;;;;;11.18;7.28;;;;;;;5.13;50.09;100958.53;5110169;28;20123;-61
2022/03/07 06:00:00;;;;;;;10.90;7.05;;;;;;;5.15;49.77;100957.59;5110524;28;20097;-62
2022/03/07 06:02:26;;;;;;;13.05;6.82;;;;;;;5.16;49.54;100955.88;5109237;28;20051;-61
2022/03/07 06:04:53;;;;;;;9.52;7.20;;;;;;;5.17;49.52;100957.59;5110858;28;20070;-62
2022/03/07 06:07:20;;;;;;;8.63;6.38;;;;;;;5.17;49.49;100966.28;5110989;28;20093;-60
2022/03/07 06:09:47;;;;;;;11.82;7.50;;;;;;;5.21;49.42;100959.28;5110753;28;20442;-60
2022/03/07 06:12:13;;;;;;;12.30;7.13;;;;;;;5.21;49.60;100961.88;5110788;28;20051;-61
2022/03/07 06:14:40;;;;;;;9.75;6.80;;;;;;;5.22;49.40;100959.25;5110978;28;20047;-61
2022/03/07 06:17:06;;;;;;;8.90;7.22;;;;;;;5.23;49.21;100960.09;5110826;28;20047;-61
2022/03/07 06:19:33;;;;;;;10.45;7.50;;;;;;;5.23;49.39;100962.69;5110886;28;20050;-61
2022/03/07 06:21:59;;;;;;;10.00;7.63;;;;;;;5.23;49.37;100962.69;5111002;28;20114;-63
2022/03/07 06:24:28;;;;;;;12.05;8.20;;;;;;;5.24;49.32;100960.97;5110753;28;20449;-61
2022/03/07 06:26:56;;;;;;;11.52;8.38;;;;;;;5.24;49.23;100961.84;5110444;28;20479;-60
2022/03/07 06:29:23;;;;;;;10.27;7.07;;;;;;;5.22;49.18;100956.63;5110899;28;20052;-61
2022/03/07 06:31:50;;;;;;;13.73;8.70;;;;;;;5.24;49.42;100960.97;5110893;28;20096;-63
2022/03/07 06:34:17;;;;;;;14.10;8.50;;;;;;;5.24;49.33;100960.97;5109067;28;20044;-60
2022/03/07 06:36:43;;;;;;;13.90;8.00;;;;;;;5.25;49.25;100967.91;5110806;28;20052;-62
2022/03/07 06:39:10;;;;;;;16.10;8.15;;;;;;;5.25;49.21;100958.34;5110804;28;20113;-64
2022/03/07 06:41:36;;;;;;;13.07;7.70;;;;;;;5.27;49.38;100966.16;5110669;28;20073;-60
2022/03/07 06:44:03;;;;;;;14.27;8.60;;;;;;;5.27;49.38;100961.78;5110567;28;20121;-60
2022/03/07 06:46:30;;;;;;;13.45;8.85;;;;;;;5.28;49.50;100958.31;5110401;28;20083;-63
2022/03/07 06:48:57;;;;;;;12.38;8.85;;;;;;;5.29;49.35;100970.47;5110368;28;20048;-61
2022/03/07 06:51:23;;;;;;;12.90;8.95;;;;;;;5.30;49.26;100966.97;5089919;28;20075;-60
2022/03/07 06:53:50;;;;;;;12.93;8.70;;;;;;;5.29;49.30;100962.63;5090020;28;20044;-60
2022/03/07 06:56:19;;;;;;;11.02;8.02;;;;;;;5.31;49.19;100967.84;5090041;28;20476;-62
2022/03/07 06:58:46;;;;;;;11.30;8.25;;;;;;;5.31;49.21;100965.22;5088911;28;20055;-64
2022/03/07 07:01:13;;;;;;;14.60;8.98;;;;;;;5.32;49.62;100964.31;5092517;28;20408;-62
2022/03/07 07:03:40;;;;;;;11.60;9.00;;;;;;;5.33;49.63;100958.22;5093826;28;20626;-62
2022/03/07 07:06:08;;;;;;;11.55;8.18;;;;;;;5.36;49.81;100952.94;5101823;28;20104;-63
2022/03/07 07:08:35;;;;;;;14.48;9.48;;;;;;;5.39;49.87;100950.28;5113939;28;20060;-61
2022/03/07 07:11:01;;;;;;;10.48;8.32;;;;;;;5.43;49.78;100957.19;5113610;28;20504;-61
2022/03/07 07:13:28;;;;;;;13.55;8.50;;;;;;;5.47;49.83;100958.84;5113815;28;20458;-61
2022/03/07 07:15:55;;;;;;;12.68;8.73;;;;;;;5.52;49.89;100960.50;5113809;28;20075;-61
2022/03/07 07:18:25;;;;;;;10.85;8.13;;;;;;;5.55;50.51;100963.97;5114225;28;20139;-61
2022/03/07 07:20:53;;;;;;;11.95;7.70;;;;;;;5.60;49.77;100964.75;5112179;28;20100;-61
2022/03/07 07:23:21;;;;;;;12.57;7.75;;;;;;;5.66;50.03;100968.13;5112613;28;20108;-61
2022/03/07 07:25:48;;;;;;;11.38;7.82;;;;;;;5.70;49.85;100967.19;5114078;28;20051;-61
2022/03/07 07:28:14;;;;;;;12.77;8.65;;;;;;;5.74;50.18;100971.47;5113255;28;20488;-61
2022/03/07 07:30:41;;;;;;;10.73;7.95;;;;;;;5.78;50.17;100978.38;5113891;28;20446;-60
2022/03/07 07:33:07;;;;;;;10.35;7.78;;;;;;;5.80;50.30;100981.81;5113335;28;20069;-61
2022/03/07 07:35:36;;;;;;;10.35;7.78;;;;;;;5.83;50.33;100980.91;5113482;28;20104;-61
2022/03/07 07:38:03;;;;;;;13.80;8.38;;;;;;;5.86;50.45;100981.72;5113577;28;20043;-61
2022/03/07 07:40:30;;;;;;;14.52;8.35;;;;;;;5.92;50.71;100993.81;5113310;28;20047;-61
2022/03/07 07:42:58;;;;;;;12.23;8.27;;;;;;;5.97;51.00;100996.34;5113433;28;20089;-63
2022/03/07 07:45:30;;;;;;;10.38;7.53;;;;;;;6.03;50.72;100996.28;5113271;28;20130;-60
2022/03/07 07:47:58;;;;;;;11.80;8.10;;;;;;;6.09;50.83;100992.69;5113110;28;20043;-62
2022/03/07 07:50:26;;;;;;;12.05;7.85;;;;;;;6.14;50.55;100996.09;5113318;28;20108;-60
2022/03/07 07:52:54;;;;;;;13.15;8.27;;;;;;;6.20;50.89;100992.50;5113063;28;20069;-61
2022/03/07 07:55:22;;;;;;;11.85;7.43;;;;;;;6.26;50.94;100989.75;5113210;28;20100;-61
2022/03/07 07:57:48;;;;;;;8.85;6.35;;;;;;;6.32;50.95;100989.63;5111769;28;20047;-61
2022/03/07 08:00:19;;;;;;;9.77;6.75;;;;;;;6.36;50.74;100998.28;5112440;28;20124;-62
2022/03/07 08:02:48;;;;;;;10.30;6.93;;;;;;;6.42;50.94;101010.38;5111682;28;20048;-61
2022/03/07 08:05:17;;;;;;;10.02;7.32;;;;;;;6.46;50.89;101006.78;5095181;28;20043;-61
2022/03/07 08:07:45;;;;;;;12.90;7.60;;;;;;;6.50;51.09;101008.47;5112838;28;20105;-61
2022/03/07 08:10:14;;;;;;;10.02;7.18;;;;;;;6.54;51.07;101011.91;5112420;28;20052;-61
2022/03/07 08:12:41;;;;;;;8.75;6.68;;;;;;;6.59;50.98;101018.78;5112957;28;20108;-63
2022/03/07 08:15:14;;;;;;;10.85;7.38;;;;;;;6.64;51.15;101010.81;5112472;28;20410;-63
2022/03/07 08:17:49;;;;;;;12.57;7.68;;;;;;;6.69;51.86;101016.81;5113268;28;20051;-61
2022/03/07 08:20:19;;;;;;;9.02;6.82;;;;;;;6.78;51.23;101015.78;5111410;28;20086;-62
2022/03/07 08:22:46;;;;;;;10.07;7.00;;;;;;;6.85;51.29;101012.13;5111209;28;20040;-61
2022/03/07 08:25:13;;;;;;;16.25;7.40;;;;;;;6.93;51.00;101016.31;5111202;28;20545;-61
2022/03/07 08:27:40;;;;;;;8.75;6.28;;;;;;;7.00;51.36;101010.06;5112412;28;20047;-61
2022/03/07 08:30:09;;;;;;;8.32;6.10;;;;;;;7.04;51.12;101014.34;5112142;28;20078;-62
2022/03/07 08:32:37;;;;;;;10.68;6.47;;;;;;;7.09;50.86;101019.47;5111364;28;20051;-61
2022/03/07 08:35:05;;;;;;;9.30;6.35;;;;;;;7.11;50.94;101015.06;5112322;28;20463;-60
2022/03/07 08:37:39;;;;;;;14.20;7.43;;;;;;;7.13;50.36;101018.50;5112451;28;20128;-61
2022/03/07 08:40:07;;;;;;;14.68;6.22;;;;;;;7.12;50.59;101017.66;5110023;28;20100;-61
2022/03/07 08:42:35;;;;;;;13.25;6.97;;;;;;;7.12;50.51;101012.44;5111129;28;20055;-61
2022/03/07 08:45:03;;;;;;;10.82;6.57;;;;;;;7.10;50.30;101008.97;5112309;28;20092;-60
2022/03/07 08:47:30;;;;;;;9.07;6.88;;;;;;;7.09;50.19;101004.63;5112011;28;20496;-60
2022/03/07 08:49:56;;;;;;;19.05;7.88;;;;;;;7.08;50.48;101004.66;5112009;28;20106;-62
2022/03/07 08:52:23;;;;;;;9.75;7.15;;;;;;;7.05;49.99;101008.22;5111856;28;20051;-61
2022/03/07 08:54:50;;;;;;;10.05;7.50;;;;;;;7.01;50.25;101001.31;5111579;28;20048;-61
2022/03/07 08:57:16;;;;;;;14.90;8.10;;;;;;;6.98;50.46;101004.00;5112085;28;20093;-61
2022/03/07 08:59:43;;;;;;;11.27;7.13;;;;;;;6.95;50.40;101004.94;5111793;28;20043;-61
2022/03/07 09:02:10;;;;;;;12.77;7.07;;;;;;;6.93;50.11;101003.25;5111815;28;20104;-61
2022/03/07 09:04:42;;;;;;;12.32;7.20;;;;;;;6.89;50.45;101005.91;5111767;28;20047;-61
2022/03/07 09:07:09;;;;;;;10.65;7.65;;;;;;;6.87;50.47;101004.22;5111424;28;20057;-62
2022/03/07 09:09:37;;;;;;;10.65;7.70;;;;;;;6.86;50.40;101010.38;5110238;28;20578;-61
2022/03/07 09:12:05;;;;;;;11.18;7.65;;;;;;;6.83;50.42;101007.81;5111597;28;20052;-63
2022/03/07 09:14:31;;;;;;;10.52;7.63;;;;;;;6.82;50.76;101009.56;5110191;28;20040;-62
2022/03/07 09:16:58;;;;;;;9.73;7.28;;;;;;;6.81;50.98;101010.47;5111546;28;20096;-62
2022/03/07 09:19:25;;;;;;;9.52;7.20;;;;;;;6.83;51.16;101010.41;5111315;28;20230;-60
2022/03/07 09:21:52;;;;;;;10.77;7.70;;;;;;;6.84;50.91;100999.91;5111366;28;20055;-61
2022/03/07 09:24:20;;;;;;;10.68;7.68;;;;;;;6.86;50.84;101007.75;5111444;28;20051;-60
2022/03/07 09:26:47;;;;;;;9.68;7.75;;;;;;;6.88;51.14;101004.19;5111450;28;20047;-60
2022/03/07 09:29:13;;;;;;;9.85;8.00;;;;;;;6.91;51.04;101008.50;5111011;28;20059;-62
2022/03/07 09:31:40;;;;;;;11.65;8.38;;;;;;;6.95;51.05;101007.53;5111343;28;20128;-61
2022/03/07 09:34:08;;;;;;;11.45;8.32;;;;;;;6.99;51.42;101001.34;5111198;28;20051;-60
2022/03/07 09:36:36;;;;;;;10.65;7.95;;;;;;;7.05;51.22;100997.75;5111099;28;20462;-61
2022/03/07 09:39:04;;;;;;;15.27;8.52;;;;;;;7.10;50.90;101008.13;5111146;28;20139;-61
2022/03/07 09:41:31;;;;;;;12.02;8.32;;;;;;;7.16;50.97;101016.69;5109823;28;20051;-62
2022/03/07 09:43:57;;;;;;;12.75;8.55;;;;;;;7.20;51.14;101009.63;5111031;28;20104;-62
2022/03/07 09:46:25;;;;;;;9.27;7.85;;;;;;;7.26;51.35;101006.84;5110742;28;20048;-61
2022/03/07 09:48:53;;;;;;;11.38;7.82;;;;;;;7.31;51.33;101006.75;5109611;28;20059;-61
2022/03/07 09:51:19;;;;;;;10.20;8.18;;;;;;;7.36;50.91;101004.88;5109807;28;20069;-60
2022/03/07 09:53:46;;;;;;;11.35;8.48;;;;;;;7.43;51.34;101002.97;5111006;28;20053;-61
2022/03/07 09:56:13;;;;;;;11.20;7.63;;;;;;;7.51;51.46;101005.44;5111033;28;20047;-61
2022/03/07 09:58:39;;;;;;;10.52;7.63;;;;;;;7.59;51.23;101006.09;5111202;28;20043;-61
2022/03/07 10:01:13;;;;;;;10.82;7.70;;;;;;;7.67;51.48;101008.56;5109525;28;20085;-61
2022/03/07 10:03:46;;;;;;;12.27;8.18;;;;;;;7.77;51.33;101007.41;5110729;28;20052;-62
2022/03/07 10:06:19;;;;;;;12.05;8.95;;;;;;;7.86;51.39;101000.22;5111079;28;20399;-61
2022/03/07 10:08:53;;;;;;;11.15;9.07;;;;;;;7.95;51.81;101002.59;5111020;28;20059;-60
2022/03/07 10:11:20;;;;;;;12.25;8.65;;;;;;;8.06;51.48;100997.06;5110846;28;20083;-61
2022/03/07 10:13:53;;;;;;;13.55;9.52;;;;;;;8.16;51.63;101000.31;5110673;28;20051;-61
2022/03/07 10:16:20;;;;;;;13.20;8.02;;;;;;;8.27;51.17;101003.53;5110654;28;20484;-61
2022/03/07 10:18:52;;;;;;;14.75;8.77;;;;;;;8.39;51.99;100996.19;5109733;28;20138;-61
2022/03/07 10:21:26;;;;;;;10.48;7.97;;;;;;;8.51;52.02;100995.84;5109260;28;20052;-60
2022/03/07 10:23:55;;;;;;;10.48;7.95;;;;;;;8.67;51.32;100996.31;5109107;28;20095;-62
2022/03/07 10:26:23;;;;;;;11.75;8.18;;;;;;;8.82;51.46;100989.75;5110308;28;20052;-61
2022/03/07 10:28:55;;;;;;;9.57;8.07;;;;;;;8.97;50.99;100990.22;5110940;28;20044;-61
2022/03/07 10:31:45;;;;;;;10.07;8.20;;;;;;;9.15;51.04;100980.88;5110946;28;20055;-61
2022/03/07 10:34:12;;;;;;;12.20;8.18;;;;;;;9.31;51.03;100981.25;5110497;28;20399;-61
2022/03/07 10:36:41;;;;;;;10.95;7.82;;;;;;;9.45;50.89;100983.44;5114215;28;20043;-62
2022/03/07 10:39:12;;;;;;;12.20;8.52;;;;;;;9.58;50.18;100976.03;5113103;28;20492;-61
2022/03/07 10:41:42;;;;;;;8.70;7.20;;;;;;;9.75;49.74;100974.56;5114352;28;20566;-63
2022/03/07 10:44:26;;;;;;;8.13;6.68;;;;;;;9.86;49.95;100972.44;5114398;28;20039;-62
2022/03/07 10:47:03;;;;;;;9.02;6.88;;;;;;;10.04;49.88;100980.59;5114350;28;20051;-62
2022/03/07 10:49:30;;;;;;;7.75;6.75;;;;;;;10.17;49.14;100967.91;5113921;28;20403;-62
2022/03/07 10:51:57;;;;;;;10.15;7.55;;;;;;;10.26;49.14;100961.44;5113927;28;20094;-61
2022/03/07 10:54:23;;;;;;;9.57;6.78;;;;;;;10.34;48.82;100953.25;5113996;28;20047;-62
2022/03/07 10:56:54;;;;;;;8.10;6.15;;;;;;;10.40;48.69;100956.50;5113996;28;20094;-62
2022/03/07 10:59:39;;;;;;;7.30;6.60;;;;;;;10.49;49.15;100950.09;5113350;28;20056;-61
2022/03/07 11:02:11;;;;;;;13.88;6.40;;;;;;;10.64;48.82;100947.78;5114208;28;20100;-61
2022/03/07 11:04:39;;;;;;;9.33;5.83;;;;;;;10.77;48.43;100954.28;5114422;28;20131;-61
2022/03/07 11:07:08;;;;;;;7.43;6.22;;;;;;;10.88;48.21;100953.88;5111180;28;20055;-62
2022/03/07 11:09:36;;;;;;;6.97;6.30;;;;;;;10.99;47.62;100952.63;5113606;28;20063;-62
2022/03/07 11:12:04;;;;;;;9.88;7.32;;;;;;;11.05;47.47;100947.97;5112080;28;20104;-63
2022/03/07 11:14:31;;;;;;;10.35;7.90;;;;;;;11.08;47.26;100955.75;5114151;28;20431;-62
2022/03/07 11:16:58;;;;;;;9.02;7.57;;;;;;;11.09;46.86;100948.69;5112521;28;20083;-63
2022/03/07 11:19:26;;;;;;;9.55;7.40;;;;;;;11.09;46.79;100946.03;5112362;28;20044;-62
2022/03/07 11:21:55;;;;;;;9.00;6.78;;;;;;;11.10;46.74;100949.56;5112063;28;20043;-62
2022/03/07 11:24:24;;;;;;;9.63;7.45;;;;;;;11.12;46.46;100942.44;5112507;28;20051;-62
2022/03/07 11:26:54;;;;;;;8.75;6.72;;;;;;;11.10;46.38;100933.75;5113486;28;20293;-63
2022/03/07 11:29:41;;;;;;;10.70;7.53;;;;;;;11.16;47.21;100933.47;5111604;28;20059;-62
2022/03/07 11:32:18;;;;;;;8.48;6.93;;;;;;;11.37;48.67;100928.25;5113727;28;20477;-61